createdAt,value
2022-08-03T00:01:40.181Z,72.40
2022-08-03T00:04:08.098Z,72.20
2022-08-03T00:06:37.246Z,72.30
2022-08-03T00:09:05.955Z,72.30
2022-08-03T00:11:33.561Z,72.40
2022-08-03T00:14:01.047Z,72.50
2022-08-03T00:16:28.400Z,72.50
2022-08-03T00:18:55.472Z,72.50
2022-08-03T00:21:22.388Z,72.40
2022-08-03T00:23:51.837Z,72.60
2022-08-03T00:26:23.134Z,72.70
2022-08-03T00:28:50.775Z,72.60
2022-08-03T00:31:22.353Z,72.60
2022-08-03T00:34:07.517Z,72.80
2022-08-03T00:36:37.857Z,73.20
2022-08-03T00:39:04.695Z,73.80
2022-08-03T00:41:32.390Z,73.10
2022-08-03T00:43:59.257Z,74.00
2022-08-03T00:46:26.236Z,73.40
2022-08-03T00:48:53.787Z,73.50
2022-08-03T00:51:22.315Z,73.50
2022-08-03T00:53:50.108Z,73.60
2022-08-03T00:56:17.803Z,73.60
2022-08-03T00:58:46.228Z,73.40
2022-08-03T01:01:13.879Z,73.60
2022-08-03T01:03:41.384Z,73.80
2022-08-03T01:06:18.579Z,73.80
2022-08-03T01:08:48.324Z,74.10
2022-08-03T01:11:31.046Z,73.60
2022-08-03T01:14:18.186Z,73.60
2022-08-03T01:17:21.280Z,73.80
2022-08-03T01:20:09.408Z,73.90
2022-08-03T01:22:36.266Z,73.80
2022-08-03T01:25:09.223Z,74.10
2022-08-03T01:27:49.058Z,74.20
2022-08-03T01:30:16.252Z,74.50
2022-08-03T01:33:00.900Z,74.70
2022-08-03T01:35:39.288Z,74.70
2022-08-03T01:38:13.793Z,74.90
2022-08-03T01:40:42.850Z,75.10
2022-08-03T01:43:15.034Z,75.20
2022-08-03T01:46:03.245Z,75.50
2022-08-03T01:48:32.301Z,75.40
2022-08-03T01:51:00.417Z,74.90
2022-08-03T01:53:28.926Z,75.10
2022-08-03T01:55:57.465Z,74.90
2022-08-03T01:58:25.745Z,74.80
2022-08-03T02:00:58.136Z,74.50
2022-08-03T02:03:25.735Z,74.20
2022-08-03T02:06:17.919Z,74.40
2022-08-03T02:08:45.073Z,74.70
2022-08-03T02:14:03.958Z,74.70
2022-08-03T02:16:33.102Z,74.60
2022-08-03T02:19:04.331Z,74.90
2022-08-03T02:21:56.652Z,75.10
2022-08-03T02:24:22.691Z,75.00
2022-08-03T02:26:51.308Z,75.10
2022-08-03T02:29:39.247Z,75.10
2022-08-03T02:32:14.485Z,75.40
2022-08-03T02:34:46.193Z,74.90
2022-08-03T02:37:15.025Z,75.20
2022-08-03T02:39:43.711Z,75.30
2022-08-03T02:42:13.436Z,75.30
2022-08-03T02:44:43.815Z,75.20
2022-08-03T02:47:13.376Z,75.30
2022-08-03T02:49:51.239Z,75.60
2022-08-03T02:52:21.751Z,75.40
2022-08-03T02:54:51.408Z,75.50
2022-08-03T02:57:20.040Z,75.50
2022-08-03T02:59:47.688Z,75.50
2022-08-03T03:02:16.950Z,75.40
2022-08-03T03:05:50.946Z,75.40
2022-08-03T03:07:51.185Z,75.30
2022-08-03T03:10:21.079Z,75.50
2022-08-03T03:12:51.366Z,75.30
2022-08-03T03:15:18.971Z,75.40
2022-08-03T03:17:46.895Z,75.40
2022-08-03T03:20:15.840Z,75.50
2022-08-03T03:23:00.143Z,75.90
2022-08-03T03:25:30.648Z,75.60
2022-08-03T03:27:58.273Z,75.90
2022-08-03T03:30:27.237Z,75.30
2022-08-03T03:32:55.238Z,75.40
2022-08-03T03:35:22.769Z,75.60
2022-08-03T03:37:49.768Z,76.00
2022-08-03T03:40:16.667Z,76.30
2022-08-03T03:42:43.736Z,76.30
2022-08-03T03:45:11.787Z,76.20
2022-08-03T03:47:38.937Z,76.40
2022-08-03T03:50:07.221Z,76.40
2022-08-03T03:52:34.392Z,76.30
2022-08-03T03:55:01.862Z,76.30
2022-08-03T03:57:29.514Z,76.50
2022-08-03T03:59:56.963Z,76.40
2022-08-03T04:02:23.905Z,76.10
2022-08-03T04:05:10.419Z,76.20
2022-08-03T04:08:19.021Z,76.40
2022-08-03T04:10:59.287Z,76.30
2022-08-03T04:13:37.101Z,76.30
2022-08-03T04:16:05.089Z,76.40
2022-08-03T04:18:35.336Z,76.70
2022-08-03T04:21:08.553Z,76.70
2022-08-03T04:23:39.370Z,76.90
2022-08-03T04:26:10.007Z,76.70
2022-08-03T04:28:39.630Z,76.90
2022-08-03T04:31:06.629Z,76.90
2022-08-03T04:33:35.433Z,77.00
2022-08-03T04:36:07.618Z,77.20
2022-08-03T04:38:40.580Z,77.20
2022-08-03T04:41:09.437Z,77.10
2022-08-03T04:43:40.818Z,77.20
2022-08-03T04:46:09.375Z,77.40
2022-08-03T04:48:36.575Z,77.70
2022-08-03T04:51:04.533Z,77.90
2022-08-03T04:53:31.532Z,77.90
2022-08-03T04:56:05.737Z,78.10
2022-08-03T04:58:33.111Z,78.00
2022-08-03T05:01:00.157Z,77.80
2022-08-03T05:03:27.178Z,78.10
2022-08-03T05:06:01.971Z,78.30
2022-08-03T05:08:41.225Z,77.90
2022-08-03T05:11:16.299Z,78.00
2022-08-03T05:13:47.186Z,78.20
2022-08-03T05:16:15.230Z,78.30
2022-08-03T05:18:43.084Z,78.20
2022-08-03T05:21:10.874Z,78.30
2022-08-03T05:23:38.009Z,78.30
2022-08-03T05:26:05.161Z,78.40
2022-08-03T05:28:32.095Z,78.20
2022-08-03T05:30:59.008Z,78.10
2022-08-03T05:33:26.003Z,78.10
2022-08-03T05:35:57.788Z,78.40
2022-08-03T05:38:34.539Z,78.20
2022-08-03T05:41:20.377Z,78.20
2022-08-03T05:43:54.425Z,78.20
2022-08-03T05:46:22.775Z,78.10
2022-08-03T05:48:49.781Z,78.00
2022-08-03T05:51:17.020Z,77.70
2022-08-03T05:53:45.259Z,77.80
2022-08-03T05:56:16.215Z,77.80
2022-08-03T05:58:47.958Z,77.60
2022-08-03T06:01:16.902Z,77.50
2022-08-03T06:03:44.627Z,77.70
2022-08-03T06:06:12.132Z,77.20
2022-08-03T06:08:39.992Z,77.10
2022-08-03T06:11:07.718Z,77.00
2022-08-03T06:13:34.942Z,76.70
2022-08-03T06:16:02.438Z,76.50
2022-08-03T06:18:29.395Z,76.40
2022-08-03T06:20:56.565Z,75.50
2022-08-03T06:23:53.404Z,75.50
2022-08-03T06:26:10.530Z,75.70
2022-08-03T06:28:51.534Z,75.50
2022-08-03T06:31:22.949Z,75.20
2022-08-03T06:34:34.447Z,74.80
2022-08-03T06:36:37.076Z,74.90
2022-08-03T06:39:04.504Z,74.90
2022-08-03T06:41:38.044Z,75.00
2022-08-03T06:44:12.020Z,74.60
2022-08-03T06:46:39.095Z,74.60
2022-08-03T06:49:07.348Z,74.70
2022-08-03T06:52:05.293Z,74.00
2022-08-03T06:54:22.375Z,74.20
2022-08-03T06:56:49.277Z,73.80
2022-08-03T07:00:07.495Z,73.80
2022-08-03T07:02:03.793Z,74.00
2022-08-03T07:04:30.707Z,74.00
2022-08-03T07:06:58.341Z,74.70
2022-08-03T07:09:26.657Z,74.50
2022-08-03T07:11:53.923Z,74.10
2022-08-03T07:14:21.233Z,73.50
2022-08-03T07:16:48.170Z,73.30
2022-08-03T07:19:15.326Z,72.90
2022-08-03T07:21:42.261Z,72.60
2022-08-03T07:24:09.204Z,71.90
2022-08-03T07:26:36.276Z,71.80
2022-08-03T07:29:03.584Z,71.60
2022-08-03T07:31:38.844Z,72.00
2022-08-03T07:34:05.914Z,71.60
2022-08-03T07:36:33.084Z,71.10
2022-08-03T07:39:01.445Z,70.90
2022-08-03T07:41:44.435Z,70.70
2022-08-03T07:44:11.415Z,70.30
2022-08-03T07:46:38.743Z,69.70
2022-08-03T07:49:05.762Z,69.70
2022-08-03T07:51:32.823Z,69.20
2022-08-03T07:54:00.941Z,69.10
2022-08-03T07:56:28.333Z,68.50
2022-08-03T07:58:55.830Z,68.00
2022-08-03T08:01:23.588Z,66.80
2022-08-03T08:03:52.700Z,66.70
2022-08-03T08:06:19.868Z,67.10
2022-08-03T08:08:47.123Z,67.00
2022-08-03T08:11:14.191Z,66.10
2022-08-03T08:13:41.061Z,65.90
2022-08-03T08:16:08.070Z,66.00
2022-08-03T08:18:35.156Z,66.50
2022-08-03T08:21:03.513Z,65.90
2022-08-03T08:23:43.682Z,65.90
2022-08-03T08:26:11.977Z,65.70
2022-08-03T08:28:38.958Z,65.40
2022-08-03T08:31:06.425Z,65.40
2022-08-03T08:34:02.641Z,64.90
2022-08-03T08:36:21.693Z,64.90
2022-08-03T08:38:48.721Z,64.90
2022-08-03T08:41:16.581Z,65.20
2022-08-03T08:43:43.755Z,65.30
2022-08-03T08:46:22.715Z,64.80
2022-08-03T08:48:53.275Z,64.10
2022-08-03T08:51:22.244Z,65.30
2022-08-03T08:53:52.234Z,65.00
2022-08-03T08:56:22.759Z,64.80
2022-08-03T08:58:53.174Z,64.40
2022-08-03T09:01:21.763Z,64.50
2022-08-03T09:03:49.148Z,64.30
2022-08-03T09:06:16.920Z,64.00
2022-08-03T09:08:43.824Z,63.90
2022-08-03T09:11:12.092Z,63.80
2022-08-03T09:13:39.502Z,63.50
2022-08-03T09:16:18.463Z,63.30
2022-08-03T09:18:54.391Z,63.50
2022-08-03T09:21:34.679Z,62.90
2022-08-03T09:24:06.307Z,62.10
2022-08-03T09:26:37.980Z,61.40
2022-08-03T09:29:11.232Z,61.90
2022-08-03T09:31:44.742Z,62.60
2022-08-03T09:34:15.398Z,62.70
2022-08-03T09:36:47.110Z,62.90
2022-08-03T09:39:14.983Z,62.70
2022-08-03T09:41:44.465Z,62.30
2022-08-03T09:44:24.224Z,62.40
2022-08-03T09:46:56.307Z,62.20
2022-08-03T09:49:23.755Z,61.60
2022-08-03T09:52:30.310Z,61.60
2022-08-03T09:54:38.207Z,61.10
2022-08-03T09:57:05.249Z,60.70
2022-08-03T09:59:33.874Z,60.90
2022-08-03T10:02:03.430Z,61.00
2022-08-03T10:04:30.422Z,61.30
2022-08-03T10:07:05.019Z,61.50
2022-08-03T10:09:32.150Z,61.70
2022-08-03T10:12:11.355Z,60.00
2022-08-03T10:14:40.341Z,60.00
2022-08-03T10:17:07.612Z,60.00
2022-08-03T10:19:34.705Z,60.00
2022-08-03T10:22:08.154Z,59.40
2022-08-03T10:24:37.421Z,59.60
2022-08-03T10:27:08.027Z,59.40
2022-08-03T10:29:39.671Z,59.30
2022-08-03T10:32:19.150Z,58.00
2022-08-03T10:34:50.241Z,56.60
2022-08-03T10:37:18.559Z,56.50
2022-08-03T10:40:03.757Z,55.70
2022-08-03T10:42:38.032Z,55.50
2022-08-03T10:45:14.994Z,55.40
2022-08-03T10:47:42.394Z,56.30
2022-08-03T10:50:10.354Z,55.80
2022-08-03T10:52:58.142Z,55.70
2022-08-03T10:56:06.846Z,56.10
2022-08-03T10:58:53.363Z,55.40
2022-08-03T11:01:59.851Z,54.70
2022-08-03T11:04:37.663Z,52.90
2022-08-03T11:07:16.737Z,53.40
2022-08-03T11:09:49.461Z,53.90
2022-08-03T11:12:30.213Z,53.80
2022-08-03T11:15:02.199Z,53.00
2022-08-03T11:17:29.477Z,53.00
2022-08-03T11:19:58.481Z,52.40
2022-08-03T11:22:25.895Z,52.50
2022-08-03T11:24:57.184Z,52.20
2022-08-03T11:27:27.982Z,51.90
2022-08-03T11:29:59.529Z,51.80
2022-08-03T11:32:40.042Z,51.00
2022-08-03T11:35:18.826Z,51.70
2022-08-03T11:38:03.220Z,51.00
2022-08-03T11:40:49.131Z,50.60
2022-08-03T11:43:22.367Z,49.70
2022-08-03T11:46:02.085Z,49.80
2022-08-03T11:48:45.109Z,50.00
2022-08-03T11:51:23.781Z,49.20
2022-08-03T11:53:57.903Z,49.30
2022-08-03T11:56:25.698Z,49.50
2022-08-03T11:59:20.483Z,48.80
2022-08-03T12:01:46.073Z,49.10
2022-08-03T12:04:13.096Z,48.70
2022-08-03T12:06:55.219Z,48.40
2022-08-03T12:09:22.880Z,47.80
2022-08-03T12:12:00.214Z,48.10
2022-08-03T12:14:48.454Z,48.00
2022-08-03T12:17:17.360Z,48.00
2022-08-03T12:19:45.595Z,47.30
2022-08-03T12:22:13.754Z,46.80
2022-08-03T12:24:42.915Z,46.70
2022-08-03T12:27:10.023Z,47.40
2022-08-03T12:29:37.389Z,46.60
2022-08-03T12:32:04.667Z,45.90
2022-08-03T12:34:50.989Z,45.40
2022-08-03T12:37:23.364Z,46.10
2022-08-03T12:40:02.405Z,44.60
2022-08-03T12:42:31.579Z,45.50
2022-08-03T12:44:58.558Z,45.40
2022-08-03T12:47:25.744Z,45.00
2022-08-03T12:49:54.225Z,45.20
2022-08-03T12:52:29.568Z,44.70
2022-08-03T12:54:58.566Z,44.20
2022-08-03T12:57:25.842Z,43.80
2022-08-03T12:59:55.974Z,43.80
2022-08-03T13:02:25.132Z,44.00
2022-08-03T13:04:55.133Z,43.90
2022-08-03T13:07:23.041Z,43.30
2022-08-03T13:09:55.633Z,43.00
2022-08-03T13:12:25.016Z,43.10
2022-08-03T13:15:01.777Z,43.00
2022-08-03T13:17:29.106Z,43.60
2022-08-03T13:19:56.373Z,42.30
2022-08-03T13:22:25.597Z,42.20
2022-08-03T13:24:55.987Z,42.10
2022-08-03T13:28:02.211Z,42.30
2022-08-03T13:30:10.774Z,41.40
2022-08-03T13:32:37.840Z,40.90
2022-08-03T13:35:06.803Z,41.10
2022-08-03T13:37:34.055Z,41.10
2022-08-03T13:40:04.542Z,40.80
2022-08-03T13:42:33.875Z,39.50
2022-08-03T13:45:01.388Z,40.00
2022-08-03T13:47:28.764Z,40.10
2022-08-03T13:50:00.072Z,39.00
2022-08-03T13:52:34.157Z,39.30
2022-08-03T13:55:04.138Z,38.90
2022-08-03T13:58:05.941Z,38.30
2022-08-03T14:00:27.595Z,38.20
2022-08-03T14:03:16.427Z,37.40
2022-08-03T14:05:44.303Z,37.10
2022-08-03T14:08:12.300Z,37.30
2022-08-03T14:10:46.921Z,37.20
2022-08-03T14:13:16.717Z,37.50
2022-08-03T14:15:49.886Z,37.30
2022-08-03T14:18:28.750Z,37.10
2022-08-03T14:21:05.906Z,36.70
2022-08-03T14:23:35.241Z,36.40
2022-08-03T14:26:02.265Z,36.10
2022-08-03T14:28:29.176Z,36.40
2022-08-03T14:30:56.562Z,36.00
2022-08-03T14:33:24.389Z,35.50
2022-08-03T14:35:52.150Z,35.40
2022-08-03T14:38:19.406Z,35.20
2022-08-03T14:40:47.524Z,35.60
2022-08-03T14:43:15.129Z,36.30
2022-08-03T14:45:42.681Z,36.40
2022-08-03T14:50:10.361Z,35.50
2022-08-03T14:50:57.125Z,35.20
2022-08-03T14:53:24.165Z,35.50
2022-08-03T14:55:52.866Z,34.70
2022-08-03T14:58:21.842Z,33.80
2022-08-03T15:00:50.511Z,33.70
2022-08-03T15:03:21.539Z,33.80
2022-08-03T15:05:48.928Z,34.20
2022-08-03T15:08:16.370Z,34.30
2022-08-03T15:10:44.936Z,34.50
2022-08-03T15:13:16.001Z,33.80
2022-08-03T15:15:43.022Z,33.40
2022-08-03T15:18:09.982Z,32.90
2022-08-03T15:20:44.413Z,33.10
2022-08-03T15:23:14.319Z,32.90
2022-08-03T15:26:28.792Z,31.90
2022-08-03T15:28:29.562Z,31.70
2022-08-03T15:30:56.662Z,31.10
2022-08-03T15:33:23.663Z,31.40
2022-08-03T15:35:50.705Z,30.40
2022-08-03T15:38:18.137Z,30.70
2022-08-03T15:40:45.390Z,30.60
2022-08-03T15:43:12.766Z,30.50
2022-08-03T15:45:41.903Z,31.20
2022-08-03T15:48:09.393Z,31.20
2022-08-03T15:50:36.349Z,30.50
2022-08-03T15:53:04.278Z,30.80
2022-08-03T15:55:32.066Z,30.50
2022-08-03T15:59:10.092Z,30.50
2022-08-03T16:00:46.173Z,31.00
2022-08-03T16:03:13.305Z,31.40
2022-08-03T16:05:40.483Z,31.50
2022-08-03T16:08:13.221Z,31.50
2022-08-03T16:10:40.984Z,31.90
2022-08-03T16:13:08.441Z,31.60
2022-08-03T16:15:38.702Z,31.30
2022-08-03T16:18:09.276Z,30.50
2022-08-03T16:20:36.338Z,30.70
2022-08-03T16:23:11.009Z,31.10
2022-08-03T16:25:39.982Z,31.40
2022-08-03T16:28:13.528Z,31.70
2022-08-03T16:30:43.883Z,31.70
2022-08-03T16:33:16.895Z,31.80
2022-08-03T16:35:45.727Z,31.70
2022-08-03T16:38:16.779Z,31.90
2022-08-03T16:40:47.959Z,31.40
2022-08-03T16:43:18.290Z,31.20
2022-08-03T16:45:47.469Z,31.60
2022-08-03T16:48:15.401Z,31.90
2022-08-03T16:50:42.784Z,32.00
2022-08-03T16:53:15.636Z,31.90
2022-08-03T16:55:52.171Z,32.00
2022-08-03T16:58:42.414Z,32.20
2022-08-03T17:01:21.205Z,32.10
2022-08-03T17:04:02.618Z,32.20
2022-08-03T17:06:36.443Z,32.60
2022-08-03T17:09:15.489Z,32.60
2022-08-03T17:11:47.827Z,33.00
2022-08-03T17:14:16.988Z,33.10
2022-08-03T17:16:51.977Z,32.70
2022-08-03T17:19:24.512Z,33.00
2022-08-03T17:22:15.801Z,33.40
2022-08-03T17:24:50.777Z,33.40
2022-08-03T17:28:49.701Z,33.50
2022-08-03T17:30:11.943Z,33.60
2022-08-03T17:32:57.203Z,33.70
2022-08-03T17:35:34.290Z,33.80
2022-08-03T17:38:06.729Z,34.30
2022-08-03T17:40:34.813Z,35.10
2022-08-03T17:44:14.328Z,35.60
2022-08-03T17:45:54.961Z,36.00
2022-08-03T17:48:25.099Z,36.40
2022-08-03T17:51:06.656Z,37.00
2022-08-03T17:53:38.536Z,37.60
2022-08-03T17:56:44.395Z,38.20
2022-08-03T17:59:51.768Z,38.10
2022-08-03T18:02:36.543Z,38.80
2022-08-03T18:05:15.926Z,38.90
2022-08-03T18:08:01.461Z,39.00
2022-08-03T18:10:36.383Z,39.40
2022-08-03T18:13:44.505Z,39.50
2022-08-03T18:16:46.118Z,39.70
2022-08-03T18:19:13.535Z,40.40
2022-08-03T18:22:03.515Z,40.10
2022-08-03T18:24:30.548Z,40.40
2022-08-03T18:26:59.029Z,40.90
2022-08-03T18:29:27.515Z,41.30
2022-08-03T18:32:06.823Z,41.70
2022-08-03T18:34:41.068Z,41.50
2022-08-03T18:37:25.628Z,42.00
2022-08-03T18:39:57.871Z,42.40
2022-08-03T18:42:26.424Z,42.60
2022-08-03T18:44:56.357Z,42.80
2022-08-03T18:48:10.151Z,43.20
2022-08-03T18:51:06.922Z,43.30
2022-08-03T18:54:06.267Z,44.30
2022-08-03T18:56:42.596Z,45.10
2022-08-03T18:59:31.312Z,45.40
2022-08-03T19:02:06.225Z,45.60
2022-08-03T19:04:48.061Z,46.10
2022-08-03T19:07:24.386Z,46.60
2022-08-03T19:10:09.970Z,46.70
2022-08-03T19:12:53.065Z,46.80
2022-08-03T19:15:41.516Z,46.90
2022-08-03T19:18:17.513Z,46.90
2022-08-03T19:20:46.710Z,47.20
2022-08-03T19:23:15.790Z,47.20
2022-08-03T19:25:43.175Z,46.90
2022-08-03T19:28:10.174Z,47.60
2022-08-03T19:30:46.410Z,48.10
2022-08-03T19:33:22.773Z,48.20
2022-08-03T19:35:54.697Z,48.10
2022-08-03T19:38:29.185Z,48.70
2022-08-03T19:40:59.594Z,48.70
2022-08-03T19:43:53.013Z,48.90
2022-08-03T19:46:27.622Z,49.00
2022-08-03T19:49:10.665Z,49.10
2022-08-03T19:52:01.194Z,49.70
2022-08-03T19:54:54.156Z,49.70
2022-08-03T19:57:25.168Z,50.60
2022-08-03T19:59:54.188Z,49.20
2022-08-03T20:02:26.105Z,49.60
2022-08-03T20:04:56.416Z,49.50
2022-08-03T20:07:24.756Z,49.50
2022-08-03T20:09:56.041Z,49.50
2022-08-03T20:12:26.622Z,49.80
2022-08-03T20:14:59.393Z,49.80
2022-08-03T20:17:55.322Z,50.40
2022-08-03T20:20:18.533Z,51.00
2022-08-03T20:22:51.310Z,51.10
2022-08-03T20:25:26.490Z,51.00
2022-08-03T20:28:14.202Z,51.30
2022-08-03T20:30:44.248Z,51.70
2022-08-03T20:33:11.141Z,52.10
2022-08-03T20:35:38.574Z,52.00
2022-08-03T20:38:09.329Z,52.00
2022-08-03T20:40:38.226Z,52.00
2022-08-03T20:43:09.353Z,52.20
2022-08-03T20:45:58.975Z,51.80
2022-08-03T20:48:26.783Z,52.10
2022-08-03T20:50:56.991Z,51.80
2022-08-03T20:53:57.304Z,52.20
2022-08-03T20:56:13.621Z,52.90
2022-08-03T20:58:42.551Z,53.00
2022-08-03T21:01:17.833Z,52.90
2022-08-03T21:03:55.765Z,53.10
2022-08-03T21:06:27.785Z,52.90
2022-08-03T21:09:05.193Z,53.10
2022-08-03T21:11:50.563Z,53.60
2022-08-03T21:14:25.262Z,53.90
2022-08-03T21:16:52.981Z,53.80
2022-08-03T21:19:22.006Z,54.00
2022-08-03T21:21:50.212Z,54.20
2022-08-03T21:24:19.741Z,54.30
2022-08-03T21:26:49.339Z,54.40
2022-08-03T21:29:16.984Z,54.50
2022-08-03T21:31:44.534Z,54.60
2022-08-03T21:34:11.737Z,54.50
2022-08-03T21:36:38.785Z,55.00
2022-08-03T21:39:09.231Z,55.30
2022-08-03T21:41:40.271Z,55.50
2022-08-03T21:44:07.907Z,55.70
2022-08-03T21:46:41.206Z,56.00
2022-08-03T21:50:06.133Z,56.20
2022-08-03T21:51:58.618Z,56.30
2022-08-03T21:54:33.503Z,56.40
2022-08-03T21:57:04.881Z,56.70
2022-08-03T21:59:37.097Z,56.70
2022-08-03T22:02:04.704Z,56.50
2022-08-03T22:04:50.850Z,56.60
2022-08-03T22:07:23.452Z,56.30
2022-08-03T22:09:52.140Z,56.10
2022-08-03T22:12:24.025Z,56.10
2022-08-03T22:15:00.341Z,56.10
2022-08-03T22:17:55.036Z,56.40
2022-08-03T22:20:19.554Z,56.80
2022-08-03T22:22:53.636Z,57.20
2022-08-03T22:25:29.456Z,57.40
2022-08-03T22:27:58.606Z,57.50
2022-08-03T22:30:25.666Z,57.90
2022-08-03T22:32:54.465Z,58.10
2022-08-03T22:35:24.055Z,58.20
2022-08-03T22:37:52.525Z,58.10
2022-08-03T22:40:19.978Z,58.20
2022-08-03T22:42:50.587Z,58.20
2022-08-03T22:46:06.910Z,58.20
2022-08-03T22:48:08.084Z,58.30
2022-08-03T22:50:35.307Z,58.40
2022-08-03T22:53:02.308Z,58.60
2022-08-03T22:55:29.536Z,58.80
2022-08-03T22:57:56.594Z,58.90
2022-08-03T23:00:24.665Z,59.30
2022-08-03T23:02:53.825Z,59.40
2022-08-03T23:06:01.494Z,60.20
2022-08-03T23:08:14.805Z,59.70
2022-08-03T23:10:47.067Z,59.90
2022-08-03T23:13:18.485Z,60.00
2022-08-03T23:15:55.145Z,60.20
2022-08-03T23:18:23.633Z,60.50
2022-08-03T23:20:53.248Z,60.70
2022-08-03T23:23:20.751Z,60.70
2022-08-03T23:25:50.716Z,60.60
2022-08-03T23:28:18.270Z,60.60
2022-08-03T23:30:45.804Z,60.80
2022-08-03T23:33:16.476Z,60.80
2022-08-03T23:36:27.550Z,60.60
2022-08-03T23:38:48.475Z,60.40
2022-08-03T23:41:18.575Z,60.30
2022-08-03T23:43:52.010Z,60.50
2022-08-03T23:46:22.550Z,60.70
2022-08-03T23:48:50.613Z,60.70
2022-08-03T23:51:45.183Z,60.80
2022-08-03T23:54:32.492Z,60.80
2022-08-03T23:57:02.148Z,60.80
2022-08-03T23:59:32.058Z,60.90
